sensor_id;sensor_type;location;lat;lon;timestamp;pressure;altitude;pressure_sealevel;temperature;humidity
19447;BME280;9862;49.462;11.054;2023-04-20T00:01:53;98091.44;;;9.76;100.00
19447;BME280;9862;49.462;11.054;2023-04-20T00:04:20;98094.28;;;9.74;100.00
19447;BME280;9862;49.462;11.054;2023-04-20T00:06:47;98086.91;;;9.70;100.00
19447;BME280;9862;49.462;11.054;2023-04-20T00:09:15;98089.97;;;9.73;100.00
19447;BME280;9862;49.462;11.054;2023-04-20T00:11:44;98090.81;;;9.81;100.00
19447;BME280;9862;49.462;11.054;2023-04-20T00:14:10;98081.03;;;9.88;100.00
19447;BME280;9862;49.462;11.054;2023-04-20T00:16:37;98077.50;;;9.74;100.00
19447;BME280;9862;49.462;11.054;2023-04-20T00:19:03;98070.13;;;9.50;100.00
19447;BME280;9862;49.462;11.054;2023-04-20T00:21:31;98071.91;;;9.29;100.00
19447;BME280;9862;49.462;11.054;2023-04-20T00:23:58;98062.03;;;9.10;100.00
19447;BME280;9862;49.462;11.054;2023-04-20T00:26:24;98062.81;;;9.04;100.00
19447;BME280;9862;49.462;11.054;2023-04-20T00:28:52;98062.47;;;9.20;100.00
19447;BME280;9862;49.462;11.054;2023-04-20T00:31:19;98053.06;;;9.24;100.00
19447;BME280;9862;49.462;11.054;2023-04-20T00:33:46;98045.69;;;9.13;100.00
19447;BME280;9862;49.462;11.054;2023-04-20T00:36:13;98060.81;;;9.12;100.00
19447;BME280;9862;49.462;11.054;2023-04-20T00:38:39;98051.03;;;9.20;100.00
19447;BME280;9862;49.462;11.054;2023-04-20T00:41:06;98052.88;;;9.26;100.00
19447;BME280;9862;49.462;11.054;2023-04-20T00:43:32;98038.59;;;9.27;100.00
19447;BME280;9862;49.462;11.054;2023-04-20T00:46:00;98045.72;;;9.26;100.00
19447;BME280;9862;49.462;11.054;2023-04-20T00:48:27;98042.25;;;9.26;100.00
19447;BME280;9862;49.462;11.054;2023-04-20T00:50:54;98043.91;;;9.27;100.00
19447;BME280;9862;49.462;11.054;2023-04-20T00:53:21;98036.75;;;9.34;100.00
19447;BME280;9862;49.462;11.054;2023-04-20T00:55:49;98038.00;;;9.38;100.00
19447;BME280;9862;49.462;11.054;2023-04-20T00:58:16;98038.41;;;9.35;100.00
19447;BME280;9862;49.462;11.054;2023-04-20T01:00:42;98034.72;;;9.36;100.00
19447;BME280;9862;49.462;11.054;2023-04-20T01:03:10;98029.41;;;9.36;100.00
19447;BME280;9862;49.462;11.054;2023-04-20T01:05:37;98024.13;;;9.49;100.00
19447;BME280;9862;49.462;11.054;2023-04-20T01:08:04;98019.44;;;9.51;100.00
19447;BME280;9862;49.462;11.054;2023-04-20T01:10:31;98016.31;;;9.21;100.00
19447;BME280;9862;49.462;11.054;2023-04-20T01:12:57;98022.16;;;9.03;100.00
19447;BME280;9862;49.462;11.054;2023-04-20T01:15:24;98017.03;;;8.95;100.00
19447;BME280;9862;49.462;11.054;2023-04-20T01:17:51;98019.28;;;8.92;100.00
19447;BME280;9862;49.462;11.054;2023-04-20T01:20:19;98018.63;;;8.83;100.00
19447;BME280;9862;49.462;11.054;2023-04-20T01:22:50;98017.38;;;8.79;100.00
19447;BME280;9862;49.462;11.054;2023-04-20T01:25:18;98024.00;;;8.55;100.00
19447;BME280;9862;49.462;11.054;2023-04-20T01:27:44;98027.75;;;8.39;100.00
19447;BME280;9862;49.462;11.054;2023-04-20T01:30:12;98038.25;;;8.26;100.00
19447;BME280;9862;49.462;11.054;2023-04-20T01:32:39;98040.50;;;8.29;100.00
19447;BME280;9862;49.462;11.054;2023-04-20T01:35:07;98039.22;;;8.40;100.00
19447;BME280;9862;49.462;11.054;2023-04-20T01:37:34;98025.78;;;8.48;100.00
19447;BME280;9862;49.462;11.054;2023-04-20T01:40:02;98024.03;;;8.62;100.00
19447;BME280;9862;49.462;11.054;2023-04-20T01:42:30;98023.03;;;8.63;100.00
19447;BME280;9862;49.462;11.054;2023-04-20T01:44:57;98024.84;;;8.62;100.00
19447;BME280;9862;49.462;11.054;2023-04-20T01:47:23;98017.16;;;8.74;100.00
19447;BME280;9862;49.462;11.054;2023-04-20T01:49:50;98012.69;;;8.81;100.00
19447;BME280;9862;49.462;11.054;2023-04-20T01:52:16;98012.53;;;8.89;100.00
19447;BME280;9862;49.462;11.054;2023-04-20T01:54:43;98001.09;;;8.95;100.00
19447;BME280;9862;49.462;11.054;2023-04-20T01:57:11;98007.41;;;8.81;100.00
19447;BME280;9862;49.462;11.054;2023-04-20T01:59:37;98000.38;;;8.67;100.00
19447;BME280;9862;49.462;11.054;2023-04-20T02:02:04;98005.47;;;8.68;100.00
19447;BME280;9862;49.462;11.054;2023-04-20T02:04:30;98002.72;;;8.48;100.00
19447;BME280;9862;49.462;11.054;2023-04-20T02:06:57;98005.94;;;8.37;100.00
19447;BME280;9862;49.462;11.054;2023-04-20T02:09:25;98000.38;;;8.32;100.00
19447;BME280;9862;49.462;11.054;2023-04-20T02:11:52;97999.63;;;8.38;100.00
19447;BME280;9862;49.462;11.054;2023-04-20T02:14:24;98014.75;;;8.44;100.00
19447;BME280;9862;49.462;11.054;2023-04-20T02:16:51;98008.28;;;8.53;100.00
19447;BME280;9862;49.462;11.054;2023-04-20T02:19:19;97994.03;;;8.61;100.00
19447;BME280;9862;49.462;11.054;2023-04-20T02:21:46;97991.59;;;8.59;100.00
19447;BME280;9862;49.462;11.054;2023-04-20T02:24:13;97991.97;;;8.56;100.00
19447;BME280;9862;49.462;11.054;2023-04-20T02:26:39;97981.16;;;8.58;100.00
19447;BME280;9862;49.462;11.054;2023-04-20T02:29:06;97985.88;;;8.63;100.00
19447;BME280;9862;49.462;11.054;2023-04-20T02:31:35;97988.97;;;8.73;100.00
19447;BME280;9862;49.462;11.054;2023-04-20T02:34:01;97986.34;;;8.73;100.00
19447;BME280;9862;49.462;11.054;2023-04-20T02:36:30;97989.59;;;8.75;100.00
19447;BME280;9862;49.462;11.054;2023-04-20T02:38:56;97980.63;;;8.76;100.00
19447;BME280;9862;49.462;11.054;2023-04-20T02:41:23;97968.81;;;8.78;100.00
19447;BME280;9862;49.462;11.054;2023-04-20T02:43:49;97972.09;;;8.80;100.00
19447;BME280;9862;49.462;11.054;2023-04-20T02:46:17;97970.03;;;8.82;100.00
19447;BME280;9862;49.462;11.054;2023-04-20T02:48:45;97970.84;;;8.83;100.00
19447;BME280;9862;49.462;11.054;2023-04-20T02:51:11;97971.25;;;8.86;100.00
19447;BME280;9862;49.462;11.054;2023-04-20T02:53:38;97970.06;;;8.89;100.00
19447;BME280;9862;49.462;11.054;2023-04-20T02:56:04;97963.50;;;8.85;100.00
19447;BME280;9862;49.462;11.054;2023-04-20T02:58:31;97966.56;;;8.82;100.00
19447;BME280;9862;49.462;11.054;2023-04-20T03:00:58;97961.88;;;8.84;100.00
19447;BME280;9862;49.462;11.054;2023-04-20T03:03:25;97969.00;;;8.77;100.00
19447;BME280;9862;49.462;11.054;2023-04-20T03:05:53;97964.69;;;8.76;100.00
19447;BME280;9862;49.462;11.054;2023-04-20T03:08:20;97972.03;;;8.74;100.00
19447;BME280;9862;49.462;11.054;2023-04-20T03:10:46;97969.19;;;8.69;100.00
19447;BME280;9862;49.462;11.054;2023-04-20T03:13:13;97972.88;;;8.74;100.00
19447;BME280;9862;49.462;11.054;2023-04-20T03:15:39;97961.03;;;8.77;100.00
19447;BME280;9862;49.462;11.054;2023-04-20T03:18:06;97960.22;;;8.70;100.00
19447;BME280;9862;49.462;11.054;2023-04-20T03:20:34;97964.06;;;8.67;100.00
19447;BME280;9862;49.462;11.054;2023-04-20T03:23:02;97963.03;;;8.68;100.00
19447;BME280;9862;49.462;11.054;2023-04-20T03:25:29;97955.50;;;8.72;100.00
19447;BME280;9862;49.462;11.054;2023-04-20T03:27:55;97954.09;;;8.76;100.00
19447;BME280;9862;49.462;11.054;2023-04-20T03:30:22;97960.22;;;8.70;100.00
19447;BME280;9862;49.462;11.054;2023-04-20T03:32:48;97958.94;;;8.66;100.00
19447;BME280;9862;49.462;11.054;2023-04-20T03:35:15;97963.88;;;8.69;100.00
19447;BME280;9862;49.462;11.054;2023-04-20T03:37:41;97961.22;;;8.69;100.00
19447;BME280;9862;49.462;11.054;2023-04-20T03:40:10;97963.44;;;8.65;100.00
19447;BME280;9862;49.462;11.054;2023-04-20T03:42:37;97954.91;;;8.70;100.00
19447;BME280;9862;49.462;11.054;2023-04-20T03:45:05;97955.69;;;8.64;100.00
19447;BME280;9862;49.462;11.054;2023-04-20T03:47:32;97956.91;;;8.68;100.00
19447;BME280;9862;49.462;11.054;2023-04-20T03:49:58;97959.97;;;8.65;100.00
19447;BME280;9862;49.462;11.054;2023-04-20T03:52:25;97962.03;;;8.69;100.00
19447;BME280;9862;49.462;11.054;2023-04-20T03:54:51;97953.28;;;8.69;100.00
19447;BME280;9862;49.462;11.054;2023-04-20T03:57:19;97954.69;;;8.71;100.00
19447;BME280;9862;49.462;11.054;2023-04-20T03:59:46;97950.22;;;8.72;100.00
19447;BME280;9862;49.462;11.054;2023-04-20T04:02:12;97946.28;;;8.68;100.00
19447;BME280;9862;49.462;11.054;2023-04-20T04:04:40;97951.22;;;8.71;100.00
19447;BME280;9862;49.462;11.054;2023-04-20T04:07:06;97942.03;;;8.73;100.00
19447;BME280;9862;49.462;11.054;2023-04-20T04:09:33;97943.88;;;8.73;100.00
19447;BME280;9862;49.462;11.054;2023-04-20T04:11:59;97951.22;;;8.71;100.00
19447;BME280;9862;49.462;11.054;2023-04-20T04:14:30;97946.75;;;8.71;100.00
19447;BME280;9862;49.462;11.054;2023-04-20T04:16:56;97950.44;;;8.83;100.00
19447;BME280;9862;49.462;11.054;2023-04-20T04:19:23;97949.97;;;8.60;100.00
19447;BME280;9862;49.462;11.054;2023-04-20T04:21:49;97952.63;;;8.67;100.00
19447;BME280;9862;49.462;11.054;2023-04-20T04:24:16;97951.97;;;8.51;100.00
19447;BME280;9862;49.462;11.054;2023-04-20T04:26:43;97951.16;;;8.51;100.00
19447;BME280;9862;49.462;11.054;2023-04-20T04:29:09;97954.38;;;8.46;100.00
19447;BME280;9862;49.462;11.054;2023-04-20T04:31:37;97947.34;;;8.32;100.00
19447;BME280;9862;49.462;11.054;2023-04-20T04:34:04;97956.06;;;8.26;100.00
19447;BME280;9862;49.462;11.054;2023-04-20T04:36:30;97955.66;;;8.22;100.00
19447;BME280;9862;49.462;11.054;2023-04-20T04:38:57;97959.94;;;8.23;100.00
19447;BME280;9862;49.462;11.054;2023-04-20T04:41:24;97960.50;;;8.19;100.00
19447;BME280;9862;49.462;11.054;2023-04-20T04:43:51;97949.69;;;8.14;100.00
19447;BME280;9862;49.462;11.054;2023-04-20T04:46:18;97949.75;;;8.27;100.00
19447;BME280;9862;49.462;11.054;2023-04-20T04:48:47;97940.78;;;8.28;100.00
19447;BME280;9862;49.462;11.054;2023-04-20T04:51:13;97948.53;;;8.23;100.00
19447;BME280;9862;49.462;11.054;2023-04-20T04:53:40;97950.16;;;8.24;100.00
19447;BME280;9862;49.462;11.054;2023-04-20T04:56:09;97944.25;;;8.22;100.00
19447;BME280;9862;49.462;11.054;2023-04-20T04:58:37;97948.13;;;8.26;100.00
19447;BME280;9862;49.462;11.054;2023-04-20T05:01:04;97939.75;;;8.29;100.00
19447;BME280;9862;49.462;11.054;2023-04-20T05:03:33;97939.63;;;8.37;100.00
19447;BME280;9862;49.462;11.054;2023-04-20T05:06:05;97937.44;;;8.41;100.00
19447;BME280;9862;49.462;11.054;2023-04-20T05:08:32;97939.63;;;8.37;100.00
19447;BME280;9862;49.462;11.054;2023-04-20T05:10:59;97939.28;;;8.40;100.00
19447;BME280;9862;49.462;11.054;2023-04-20T05:13:25;97937.59;;;8.39;100.00
19447;BME280;9862;49.462;11.054;2023-04-20T05:15:52;97940.59;;;8.29;100.00
19447;BME280;9862;49.462;11.054;2023-04-20T05:18:19;97934.25;;;8.24;100.00
19447;BME280;9862;49.462;11.054;2023-04-20T05:20:46;97935.47;;;8.28;100.00
19447;BME280;9862;49.462;11.054;2023-04-20T05:23:14;97940.66;;;8.36;100.00
19447;BME280;9862;49.462;11.054;2023-04-20T05:25:41;97943.88;;;8.31;100.00
19447;BME280;9862;49.462;11.054;2023-04-20T05:28:08;97950.44;;;8.36;100.00
19447;BME280;9862;49.462;11.054;2023-04-20T05:30:35;97943.69;;;8.33;100.00
19447;BME280;9862;49.462;11.054;2023-04-20T05:33:02;97937.53;;;8.26;100.00
19447;BME280;9862;49.462;11.054;2023-04-20T05:35:29;97935.34;;;8.36;100.00
19447;BME280;9862;49.462;11.054;2023-04-20T05:37:56;97938.06;;;8.43;100.00
19447;BME280;9862;49.462;11.054;2023-04-20T05:40:26;97943.69;;;8.33;100.00
19447;BME280;9862;49.462;11.054;2023-04-20T05:42:53;97942.41;;;8.29;100.00
19447;BME280;9862;49.462;11.054;2023-04-20T05:45:19;97945.81;;;8.44;100.00
19447;BME280;9862;49.462;11.054;2023-04-20T05:47:52;97946.41;;;8.40;100.00
19447;BME280;9862;49.462;11.054;2023-04-20T05:50:25;97941.28;;;8.38;100.00
19447;BME280;9862;49.462;11.054;2023-04-20T05:52:54;97945.84;;;8.51;100.00
19447;BME280;9862;49.462;11.054;2023-04-20T05:55:21;97941.81;;;8.62;100.00
19447;BME280;9862;49.462;11.054;2023-04-20T05:57:51;97938.13;;;8.63;100.00
19447;BME280;9862;49.462;11.054;2023-04-20T06:00:19;97944.28;;;8.70;100.00
19447;BME280;9862;49.462;11.054;2023-04-20T06:02:46;97939.78;;;8.70;100.00
19447;BME280;9862;49.462;11.054;2023-04-20T06:05:13;97941.81;;;8.68;100.00
19447;BME280;9862;49.462;11.054;2023-04-20T06:07:39;97940.63;;;8.71;100.00
19447;BME280;9862;49.462;11.054;2023-04-20T06:10:07;97951.44;;;8.76;100.00
19447;BME280;9862;49.462;11.054;2023-04-20T06:12:34;97951.81;;;8.59;100.00
19447;BME280;9862;49.462;11.054;2023-04-20T06:15:06;97951.66;;;8.81;100.00
19447;BME280;9862;49.462;11.054;2023-04-20T06:17:35;97952.19;;;9.17;100.00
19447;BME280;9862;49.462;11.054;2023-04-20T06:20:06;97945.00;;;9.05;100.00
19447;BME280;9862;49.462;11.054;2023-04-20T06:22:33;97954.19;;;9.02;100.00
19447;BME280;9862;49.462;11.054;2023-04-20T06:25:00;97958.34;;;9.71;100.00
19447;BME280;9862;49.462;11.054;2023-04-20T06:27:27;97951.25;;;11.64;100.00
19447;BME280;9862;49.462;11.054;2023-04-20T06:29:54;97951.81;;;11.72;100.00
19447;BME280;9862;49.462;11.054;2023-04-20T06:32:22;97949.31;;;11.21;100.00
19447;BME280;9862;49.462;11.054;2023-04-20T06:34:48;97938.09;;;10.74;100.00
19447;BME280;9862;49.462;11.054;2023-04-20T06:37:16;97948.00;;;10.54;100.00
19447;BME280;9862;49.462;11.054;2023-04-20T06:39:43;97947.25;;;10.34;100.00
19447;BME280;9862;49.462;11.054;2023-04-20T06:42:10;97954.66;;;10.25;100.00
19447;BME280;9862;49.462;11.054;2023-04-20T06:44:38;97954.19;;;10.21;100.00
19447;BME280;9862;49.462;11.054;2023-04-20T06:47:04;97955.03;;;10.15;100.00
19447;BME280;9862;49.462;11.054;2023-04-20T06:49:32;97950.94;;;10.19;100.00
19447;BME280;9862;49.462;11.054;2023-04-20T06:52:01;97949.72;;;10.22;100.00
19447;BME280;9862;49.462;11.054;2023-04-20T06:54:27;97945.63;;;10.26;100.00
19447;BME280;9862;49.462;11.054;2023-04-20T06:56:54;97938.66;;;10.31;100.00
19447;BME280;9862;49.462;11.054;2023-04-20T06:59:21;97943.97;;;10.31;100.00
19447;BME280;9862;49.462;11.054;2023-04-20T07:01:47;97947.25;;;10.27;100.00
19447;BME280;9862;49.462;11.054;2023-04-20T07:04:14;97940.09;;;10.27;100.00
19447;BME280;9862;49.462;11.054;2023-04-20T07:06:42;97944.22;;;10.23;100.00
19447;BME280;9862;49.462;11.054;2023-04-20T07:09:09;97945.59;;;10.19;100.00
19447;BME280;9862;49.462;11.054;2023-04-20T07:11:35;97944.19;;;10.10;100.00
19447;BME280;9862;49.462;11.054;2023-04-20T07:14:02;97940.28;;;10.13;100.00
19447;BME280;9862;49.462;11.054;2023-04-20T07:16:29;97931.91;;;10.22;100.00
19447;BME280;9862;49.462;11.054;2023-04-20T07:18:55;97932.94;;;10.35;100.00
19447;BME280;9862;49.462;11.054;2023-04-20T07:21:22;97932.44;;;10.57;100.00
19447;BME280;9862;49.462;11.054;2023-04-20T07:23:50;97935.75;;;10.53;100.00
19447;BME280;9862;49.462;11.054;2023-04-20T07:26:16;97933.09;;;10.46;100.00
19447;BME280;9862;49.462;11.054;2023-04-20T07:28:43;97932.88;;;10.41;100.00
19447;BME280;9862;49.462;11.054;2023-04-20T07:31:09;97937.00;;;10.44;100.00
19447;BME280;9862;49.462;11.054;2023-04-20T07:33:36;97942.31;;;10.37;100.00
19447;BME280;9862;49.462;11.054;2023-04-20T07:36:03;97946.44;;;10.20;100.00
19447;BME280;9862;49.462;11.054;2023-04-20T07:38:30;97946.03;;;10.29;100.00
19447;BME280;9862;49.462;11.054;2023-04-20T07:40:58;97933.91;;;10.47;100.00
19447;BME280;9862;49.462;11.054;2023-04-20T07:43:25;97944.59;;;10.34;100.00
19447;BME280;9862;49.462;11.054;2023-04-20T07:45:52;97934.78;;;10.34;100.00
19447;BME280;9862;49.462;11.054;2023-04-20T07:48:19;97937.22;;;10.36;100.00
19447;BME280;9862;49.462;11.054;2023-04-20T07:50:45;97943.94;;;10.45;100.00
19447;BME280;9862;49.462;11.054;2023-04-20T07:53:12;97940.03;;;10.47;100.00
19447;BME280;9862;49.462;11.054;2023-04-20T07:55:39;97943.50;;;10.48;100.00
19447;BME280;9862;49.462;11.054;2023-04-20T07:58:07;97941.06;;;10.53;100.00
19447;BME280;9862;49.462;11.054;2023-04-20T08:00:33;97944.66;;;10.72;100.00
19447;BME280;9862;49.462;11.054;2023-04-20T08:03:00;97937.72;;;10.64;100.00
19447;BME280;9862;49.462;11.054;2023-04-20T08:05:27;97936.06;;;10.70;100.00
19447;BME280;9862;49.462;11.054;2023-04-20T08:07:53;97936.03;;;10.76;100.00
19447;BME280;9862;49.462;11.054;2023-04-20T08:10:20;97926.63;;;10.74;100.00
19447;BME280;9862;49.462;11.054;2023-04-20T08:12:47;97918.97;;;10.91;100.00
19447;BME280;9862;49.462;11.054;2023-04-20T08:15:15;97910.16;;;10.90;100.00
19447;BME280;9862;49.462;11.054;2023-04-20T08:17:42;97923.69;;;10.88;100.00
19447;BME280;9862;49.462;11.054;2023-04-20T08:20:08;97923.09;;;10.86;100.00
19447;BME280;9862;49.462;11.054;2023-04-20T08:22:36;97916.13;;;10.85;100.00
19447;BME280;9862;49.462;11.054;2023-04-20T08:25:03;97908.34;;;10.84;100.00
19447;BME280;9862;49.462;11.054;2023-04-20T08:27:30;97915.69;;;10.88;100.00
19447;BME280;9862;49.462;11.054;2023-04-20T08:29:57;97908.94;;;10.93;100.00
19447;BME280;9862;49.462;11.054;2023-04-20T08:32:25;97909.66;;;11.06;100.00
19447;BME280;9862;49.462;11.054;2023-04-20T08:34:52;97907.78;;;11.13;100.00
19447;BME280;9862;49.462;11.054;2023-04-20T08:37:19;97905.06;;;11.20;100.00
19447;BME280;9862;49.462;11.054;2023-04-20T08:39:45;97904.78;;;11.28;100.00
19447;BME280;9862;49.462;11.054;2023-04-20T08:42:12;97903.78;;;11.29;100.00
19447;BME280;9862;49.462;11.054;2023-04-20T08:44:41;97902.63;;;11.43;100.00
19447;BME280;9862;49.462;11.054;2023-04-20T08:47:08;97907.78;;;11.38;100.00
19447;BME280;9862;49.462;11.054;2023-04-20T08:49:37;97906.34;;;11.42;100.00
19447;BME280;9862;49.462;11.054;2023-04-20T08:52:08;97898.78;;;11.39;100.00
19447;BME280;9862;49.462;11.054;2023-04-20T08:57:59;97895.13;;;11.34;100.00
19447;BME280;9862;49.462;11.054;2023-04-20T09:00:44;97903.34;;;11.32;100.00
19447;BME280;9862;49.462;11.054;2023-04-20T09:03:16;97903.22;;;11.45;100.00
19447;BME280;9862;49.462;11.054;2023-04-20T09:05:48;97904.63;;;11.48;100.00
19447;BME280;9862;49.462;11.054;2023-04-20T09:08:15;97902.59;;;11.50;100.00
19447;BME280;9862;49.462;11.054;2023-04-20T09:10:43;97905.19;;;11.57;100.00
19447;BME280;9862;49.462;11.054;2023-04-20T09:13:20;97900.03;;;11.62;100.00
19447;BME280;9862;49.462;11.054;2023-04-20T09:15:50;97906.53;;;11.66;100.00
19447;BME280;9862;49.462;11.054;2023-04-20T09:18:22;97905.50;;;11.67;100.00
19447;BME280;9862;49.462;11.054;2023-04-20T09:20:51;97908.66;;;11.57;100.00
19447;BME280;9862;49.462;11.054;2023-04-20T09:23:23;97904.31;;;11.63;100.00
19447;BME280;9862;49.462;11.054;2023-04-20T09:25:50;97894.25;;;11.65;100.00
19447;BME280;9862;49.462;11.054;2023-04-20T09:28:34;97898.31;;;11.67;100.00
19447;BME280;9862;49.462;11.054;2023-04-20T09:31:18;97896.69;;;11.66;100.00
19447;BME280;9862;49.462;11.054;2023-04-20T09:34:04;97898.28;;;11.74;100.00
19447;BME280;9862;49.462;11.054;2023-04-20T09:36:44;97897.22;;;11.75;100.00
19447;BME280;9862;49.462;11.054;2023-04-20T09:39:28;97880.78;;;11.85;100.00
19447;BME280;9862;49.462;11.054;2023-04-20T09:42:03;97885.19;;;11.97;100.00
19447;BME280;9862;49.462;11.054;2023-04-20T09:44:36;97878.50;;;12.07;100.00
19447;BME280;9862;49.462;11.054;2023-04-20T09:47:54;97878.06;;;12.10;100.00
19447;BME280;9862;49.462;11.054;2023-04-20T09:50:54;97879.97;;;12.02;99.62
19447;BME280;9862;49.462;11.054;2023-04-20T09:53:23;97884.78;;;11.94;99.10
19447;BME280;9862;49.462;11.054;2023-04-20T09:55:50;97877.06;;;11.86;100.00
19447;BME280;9862;49.462;11.054;2023-04-20T09:58:17;97880.19;;;11.83;100.00
19447;BME280;9862;49.462;11.054;2023-04-20T10:00:45;97879.59;;;11.81;100.00
19447;BME280;9862;49.462;11.054;2023-04-20T10:03:17;97874.44;;;11.79;100.00
19447;BME280;9862;49.462;11.054;2023-04-20T10:06:24;97875.16;;;11.93;100.00
19447;BME280;9862;49.462;11.054;2023-04-20T10:08:57;97869.38;;;11.96;100.00
19447;BME280;9862;49.462;11.054;2023-04-20T10:11:28;97873.34;;;11.87;100.00
19447;BME280;9862;49.462;11.054;2023-04-20T10:13:57;97863.16;;;11.77;100.00
19447;BME280;9862;49.462;11.054;2023-04-20T10:16:28;97857.25;;;11.75;100.00
19447;BME280;9862;49.462;11.054;2023-04-20T10:18:56;97863.31;;;11.64;100.00
19447;BME280;9862;49.462;11.054;2023-04-20T10:21:23;97857.00;;;11.58;100.00
19447;BME280;9862;49.462;11.054;2023-04-20T10:23:51;97851.06;;;11.56;100.00
19447;BME280;9862;49.462;11.054;2023-04-20T10:26:19;97852.56;;;11.52;100.00
19447;BME280;9862;49.462;11.054;2023-04-20T10:28:46;97854.84;;;11.49;100.00
19447;BME280;9862;49.462;11.054;2023-04-20T10:31:13;97843.41;;;11.41;100.00
19447;BME280;9862;49.462;11.054;2023-04-20T10:33:54;97850.81;;;11.39;100.00
19447;BME280;9862;49.462;11.054;2023-04-20T10:36:26;97844.19;;;11.49;100.00
19447;BME280;9862;49.462;11.054;2023-04-20T10:38:59;97838.63;;;11.50;100.00
19447;BME280;9862;49.462;11.054;2023-04-20T10:41:30;97826.84;;;11.58;100.00
19447;BME280;9862;49.462;11.054;2023-04-20T10:44:05;97828.50;;;11.59;100.00
19447;BME280;9862;49.462;11.054;2023-04-20T10:46:35;97823.59;;;11.56;100.00
19447;BME280;9862;49.462;11.054;2023-04-20T10:49:04;97823.59;;;11.56;100.00
19447;BME280;9862;49.462;11.054;2023-04-20T10:51:31;97821.09;;;11.61;100.00
19447;BME280;9862;49.462;11.054;2023-04-20T10:53:59;97817.41;;;11.62;100.00
19447;BME280;9862;49.462;11.054;2023-04-20T10:56:26;97810.47;;;11.79;100.00
19447;BME280;9862;49.462;11.054;2023-04-20T10:59:06;97804.97;;;11.74;100.00
19447;BME280;9862;49.462;11.054;2023-04-20T11:01:33;97798.88;;;11.67;100.00
19447;BME280;9862;49.462;11.054;2023-04-20T11:04:00;97803.41;;;11.66;100.00
19447;BME280;9862;49.462;11.054;2023-04-20T11:06:31;97793.63;;;11.60;100.00
19447;BME280;9862;49.462;11.054;2023-04-20T11:08:59;97805.34;;;11.59;100.00
19447;BME280;9862;49.462;11.054;2023-04-20T11:11:26;97788.66;;;11.64;100.00
19447;BME280;9862;49.462;11.054;2023-04-20T11:14:05;97792.66;;;11.80;100.00
19447;BME280;9862;49.462;11.054;2023-04-20T11:16:33;97789.34;;;11.78;100.00
19447;BME280;9862;49.462;11.054;2023-04-20T11:26:33;97755.44;;;11.85;100.00
19447;BME280;9862;49.462;11.054;2023-04-20T11:29:03;97743.59;;;11.99;100.00
19447;BME280;9862;49.462;11.054;2023-04-20T11:31:37;97756.34;;;11.97;100.00
19447;BME280;9862;49.462;11.054;2023-04-20T11:34:04;97744.19;;;12.01;100.00
19447;BME280;9862;49.462;11.054;2023-04-20T11:36:41;97749.75;;;11.99;100.00
19447;BME280;9862;49.462;11.054;2023-04-20T11:39:08;97758.03;;;11.91;100.00
19447;BME280;9862;49.462;11.054;2023-04-20T11:41:37;97757.16;;;11.97;100.00
19447;BME280;9862;49.462;11.054;2023-04-20T11:44:04;97755.38;;;11.91;100.00
19447;BME280;9862;49.462;11.054;2023-04-20T11:46:35;97760.84;;;11.96;100.00
19447;BME280;9862;49.462;11.054;2023-04-20T11:49:03;97746.03;;;12.00;100.00
19447;BME280;9862;49.462;11.054;2023-04-20T11:51:31;97752.69;;;12.10;100.00
19447;BME280;9862;49.462;11.054;2023-04-20T11:53:57;97747.88;;;12.00;100.00
19447;BME280;9862;49.462;11.054;2023-04-20T11:56:25;97755.97;;;11.93;100.00
19447;BME280;9862;49.462;11.054;2023-04-20T11:58:52;97749.88;;;11.86;100.00
19447;BME280;9862;49.462;11.054;2023-04-20T12:01:19;97763.22;;;11.86;100.00
19447;BME280;9862;49.462;11.054;2023-04-20T12:03:47;97743.19;;;11.77;100.00
19447;BME280;9862;49.462;11.054;2023-04-20T12:06:17;97745.16;;;11.70;100.00
19447;BME280;9862;49.462;11.054;2023-04-20T12:08:43;97746.03;;;11.64;100.00
19447;BME280;9862;49.462;11.054;2023-04-20T12:11:12;97750.53;;;11.63;100.00
19447;BME280;9862;49.462;11.054;2023-04-20T12:13:41;97756.56;;;11.59;100.00
19447;BME280;9862;49.462;11.054;2023-04-20T12:16:08;97753.44;;;11.62;100.00
19447;BME280;9862;49.462;11.054;2023-04-20T12:18:34;97754.41;;;11.49;100.00
19447;BME280;9862;49.462;11.054;2023-04-20T12:21:06;97756.97;;;11.56;100.00
19447;BME280;9862;49.462;11.054;2023-04-20T12:23:33;97750.31;;;11.65;100.00
19447;BME280;9862;49.462;11.054;2023-04-20T12:26:01;97748.03;;;11.50;100.00
19447;BME280;9862;49.462;11.054;2023-04-20T12:28:28;97760.53;;;11.50;100.00
19447;BME280;9862;49.462;11.054;2023-04-20T12:30:55;97758.00;;;11.55;100.00
19447;BME280;9862;49.462;11.054;2023-04-20T12:33:21;97754.53;;;11.54;100.00
19447;BME280;9862;49.462;11.054;2023-04-20T12:35:48;97756.91;;;11.44;100.00
19447;BME280;9862;49.462;11.054;2023-04-20T12:38:17;97755.94;;;11.57;100.00
19447;BME280;9862;49.462;11.054;2023-04-20T12:40:43;97758.00;;;11.73;100.00
19447;BME280;9862;49.462;11.054;2023-04-20T12:43:10;97759.72;;;11.67;100.00
19447;BME280;9862;49.462;11.054;2023-04-20T12:45:37;97751.00;;;11.60;100.00
19447;BME280;9862;49.462;11.054;2023-04-20T12:48:04;97749.72;;;11.63;100.00
19447;BME280;9862;49.462;11.054;2023-04-20T12:50:30;97751.81;;;11.61;100.00
19447;BME280;9862;49.462;11.054;2023-04-20T12:52:57;97753.66;;;11.60;100.00
19447;BME280;9862;49.462;11.054;2023-04-20T12:55:25;97742.78;;;11.62;100.00
19447;BME280;9862;49.462;11.054;2023-04-20T12:57:52;97750.31;;;11.46;100.00
19447;BME280;9862;49.462;11.054;2023-04-20T13:00:19;97764.00;;;11.32;100.00
19447;BME280;9862;49.462;11.054;2023-04-20T13:02:50;97757.25;;;11.29;100.00
19447;BME280;9862;49.462;11.054;2023-04-20T13:05:17;97768.19;;;11.21;100.00
19447;BME280;9862;49.462;11.054;2023-04-20T13:07:44;97747.63;;;11.28;100.00
19447;BME280;9862;49.462;11.054;2023-04-20T13:10:11;97758.06;;;11.30;100.00
19447;BME280;9862;49.462;11.054;2023-04-20T13:12:39;97760.94;;;11.28;100.00